Time;durP1;ratioP1;P1;durP2;ratioP2;P2;SDS_P1;SDS_P2;PMS_P1;PMS_P2;Temp;Humidity;BMP_temperature;BMP_pressure;BME280_temperature;BME280_humidity;BME280_pressure;Samples;Min_cycle;Max_cycle;Signal;HPM_P1;HPM_P2
2022/01/30 00:00:47;;;;;;;3.60;1.80;;;6.10;99.90;;;;;;5098007;28;20361;-76
2022/01/30 00:03:14;;;;;;;2.20;1.40;;;6.10;99.90;;;;;;5097500;28;20020;-76
2022/01/30 00:05:39;;;;;;;2.57;1.53;;;6.10;99.90;;;;;;5116101;28;20032;-76
2022/01/30 00:08:05;;;;;;;3.13;1.60;;;6.10;99.90;;;;;;5096942;28;20490;-76
2022/01/30 00:10:37;;;;;;;3.00;1.60;;;6.10;99.90;;;;;;5115703;28;20024;-76
2022/01/30 00:13:04;;;;;;;3.10;2.00;;;6.20;99.90;;;;;;5097364;28;20118;-76
2022/01/30 00:18:39;;;;;;;2.60;1.67;;;6.20;99.90;;;;;;5115418;28;20361;-76
2022/01/30 00:21:38;;;;;;;2.13;1.50;;;6.20;99.90;;;;;;5112892;28;20389;-76
2022/01/30 00:23:57;;;;;;;2.60;1.67;;;6.20;99.90;;;;;;5103556;28;20446;-77
2022/01/30 00:26:28;;;;;;;;;;;6.20;99.90;;;;;;5113932;28;20054;-76
2022/01/30 00:28:54;;;;;;;2.03;1.37;;;6.20;99.90;;;;;;5096719;28;19968;-76
2022/01/30 00:31:21;;;;;;;1.73;1.30;;;6.20;99.90;;;;;;5115548;28;20469;-76
2022/01/30 00:33:47;;;;;;;2.37;1.60;;;6.20;99.90;;;;;;5097467;28;20028;-75
2022/01/30 00:36:13;;;;;;;2.57;1.30;;;6.20;99.90;;;;;;5097142;28;20072;-76
2022/01/30 00:38:39;;;;;;;3.07;1.43;;;6.20;99.90;;;;;;5097667;28;20473;-77
2022/01/30 00:41:04;;;;;;;2.27;1.33;;;6.20;99.90;;;;;;5097308;28;20165;-77
2022/01/30 00:43:30;;;;;;;1.90;1.37;;;6.20;99.90;;;;;;5097246;28;20046;-77
2022/01/30 00:45:56;;;;;;;2.10;1.40;;;6.20;99.90;;;;;;5096926;28;20028;-77
2022/01/30 00:48:21;;;;;;;4.03;1.63;;;6.20;99.90;;;;;;5097739;28;20024;-77
2022/01/30 00:50:47;;;;;;;2.80;1.57;;;6.20;99.90;;;;;;5096837;28;20108;-77
2022/01/30 00:53:14;;;;;;;1.90;1.40;;;6.20;99.90;;;;;;5096580;28;20539;-77
2022/01/30 00:55:40;;;;;;;1.83;1.30;;;6.20;99.90;;;;;;5097752;28;20028;-77
2022/01/30 00:58:06;;;;;;;2.30;1.37;;;6.20;99.90;;;;;;5094251;28;20097;-77
2022/01/30 01:00:33;;;;;;;1.40;1.10;;;6.30;99.90;;;;;;5076995;28;20456;-77
2022/01/30 01:03:00;;;;;;;2.80;1.33;;;6.30;99.90;;;;;;5076613;28;20111;-77
2022/01/30 01:05:26;;;;;;;2.00;1.40;;;6.30;99.90;;;;;;5076870;28;20074;-77
2022/01/30 01:07:54;;;;;;;2.90;1.27;;;6.30;99.90;;;;;;5094172;28;20066;-77
2022/01/30 01:23:24;;;;;;;2.23;1.30;;;6.30;99.90;;;;;;5094380;28;20093;-76
2022/01/30 01:23:43;;;;;;;1.55;1.20;;;6.30;99.90;;;;;;5091006;28;20036;-76
2022/01/30 01:26:08;;;;;;;2.40;1.30;;;6.30;99.90;;;;;;5075629;28;20048;-76
2022/01/30 01:28:34;;;;;;;1.93;1.40;;;6.30;99.90;;;;;;5076050;28;20035;-76
2022/01/30 01:31:00;;;;;;;2.83;1.30;;;6.30;99.90;;;;;;5093571;28;20043;-76
2022/01/30 01:33:35;;;;;;;1.93;1.50;;;6.30;99.90;;;;;;5075921;28;20035;-75
2022/01/30 01:36:01;;;;;;;1.93;1.33;;;6.30;99.90;;;;;;5093528;28;20106;-76
2022/01/30 01:38:26;;;;;;;2.10;1.30;;;6.30;99.90;;;;;;5075909;28;20115;-76
2022/01/30 01:40:54;;;;;;;2.27;1.60;;;6.30;99.90;;;;;;5075410;28;20075;-75
2022/01/30 01:43:22;;;;;;;2.70;1.40;;;6.30;99.90;;;;;;5075923;28;20031;-75
2022/01/30 01:45:50;;;;;;;2.40;1.30;;;6.30;99.90;;;;;;5075613;28;20476;-75
2022/01/30 01:48:16;;;;;;;2.70;1.47;;;6.30;99.90;;;;;;5075767;28;20063;-75
2022/01/30 01:51:06;;;;;;;3.33;1.60;;;6.30;99.90;;;;;;5075531;28;20066;-75
2022/01/30 01:53:33;;;;;;;2.23;1.40;;;6.30;99.90;;;;;;5092737;28;20062;-76
2022/01/30 01:55:58;;;;;;;2.43;1.27;;;6.30;99.90;;;;;;5093978;28;20053;-76
2022/01/30 01:58:26;;;;;;;2.07;1.30;;;6.30;99.90;;;;;;5095798;28;20019;-76
2022/01/30 02:00:52;;;;;;;1.73;1.20;;;6.30;99.90;;;;;;5095055;28;20027;-76
2022/01/30 02:03:19;;;;;;;1.70;1.30;;;6.30;99.90;;;;;;5094930;28;20023;-75
2022/01/30 02:05:52;;;;;;;2.27;1.37;;;6.30;99.90;;;;;;5113112;28;20019;-76
2022/01/30 02:11:00;;;;;;;1.80;1.37;;;6.30;99.90;;;;;;5113246;28;20028;-76
2022/01/30 02:27:25;;;;;;;1.77;1.10;;;6.20;99.90;;;;;;5093288;28;20044;-75
2022/01/30 02:29:51;;;;;;;2.47;1.30;;;6.20;99.90;;;;;;5074368;28;20031;-76
2022/01/30 02:32:17;;;;;;;1.97;1.20;;;6.20;99.90;;;;;;5093203;28;20024;-77
2022/01/30 02:34:43;;;;;;;2.40;1.20;;;6.20;99.90;;;;;;5093337;28;20051;-76
2022/01/30 02:37:09;;;;;;;2.47;1.50;;;6.20;99.90;;;;;;5092586;28;20488;-76
2022/01/30 02:39:35;;;;;;;1.93;1.07;;;6.20;99.90;;;;;;5093386;28;20016;-77
2022/01/30 02:42:01;;;;;;;1.60;1.40;;;6.20;99.90;;;;;;5075565;28;20024;-77
2022/01/30 02:44:42;;;;;;;2.03;1.50;;;6.20;99.90;;;;;;5093286;28;20021;-76
2022/01/30 02:47:21;;;;;;;2.30;1.27;;;6.30;99.90;;;;;;5092138;28;20062;-76
2022/01/30 02:52:31;;;;;;;2.07;1.43;;;6.30;99.90;;;;;;5093064;28;20067;-76
2022/01/30 02:54:57;;;;;;;1.20;0.93;;;6.30;99.90;;;;;;5092444;28;20039;-76
2022/01/30 02:57:22;;;;;;;2.63;1.30;;;6.30;99.90;;;;;;5074846;28;20081;-77
2022/01/30 02:59:49;;;;;;;1.70;1.20;;;6.30;99.90;;;;;;5075060;28;20483;-77
2022/01/30 03:02:16;;;;;;;2.33;1.20;;;6.30;99.90;;;;;;5074826;28;20020;-77
2022/01/30 03:04:42;;;;;;;1.20;0.90;;;6.30;99.90;;;;;;5075038;28;20390;-77
2022/01/30 03:07:08;;;;;;;1.80;1.20;;;6.30;99.90;;;;;;5092446;28;20020;-78
2022/01/30 03:09:34;;;;;;;1.93;1.00;;;6.30;99.90;;;;;;5092984;28;20024;-77
2022/01/30 03:12:00;;;;;;;1.10;1.00;;;6.30;99.90;;;;;;5092305;28;20411;-77
2022/01/30 03:14:26;;;;;;;1.87;1.20;;;6.30;99.90;;;;;;5074507;28;20471;-77
2022/01/30 03:16:53;;;;;;;1.10;1.00;;;6.30;99.90;;;;;;5074318;28;20036;-78
2022/01/30 03:19:19;;;;;;;2.07;1.30;;;6.30;99.90;;;;;;5078401;28;20055;-77
2022/01/30 03:21:45;;;;;;;3.33;1.10;;;6.30;99.90;;;;;;5096376;28;20066;-77
2022/01/30 03:24:10;;;;;;;1.13;1.00;;;6.40;99.90;;;;;;5078133;28;20020;-77
2022/01/30 03:26:39;;;;;;;2.30;1.17;;;6.30;99.90;;;;;;5096338;28;20079;-77
2022/01/30 03:29:06;;;;;;;1.23;1.00;;;6.30;99.90;;;;;;5078161;28;20043;-77
2022/01/30 03:31:39;;;;;;;2.13;1.17;;;6.30;99.90;;;;;;5078591;28;20453;-77
2022/01/30 03:34:06;;;;;;;;;;;6.30;99.90;;;;;;5087228;28;20464;-77
2022/01/30 03:36:32;;;;;;;2.03;0.80;;;6.30;99.90;;;;;;5115879;28;19912;-76
2022/01/30 03:38:58;;;;;;;1.40;0.87;;;6.30;99.90;;;;;;5098139;28;20034;-77
2022/01/30 03:41:25;;;;;;;1.13;0.80;;;6.30;99.90;;;;;;5098864;28;20028;-77
2022/01/30 03:43:50;;;;;;;2.57;1.03;;;6.30;99.90;;;;;;5098503;28;20475;-76
2022/01/30 03:46:18;;;;;;;2.20;1.17;;;6.30;99.90;;;;;;5097788;28;20032;-77
2022/01/30 03:48:44;;;;;;;2.27;1.00;;;6.30;99.90;;;;;;5116425;28;20495;-77
2022/01/30 03:51:10;;;;;;;1.30;0.80;;;6.30;99.90;;;;;;5098082;28;20024;-77
2022/01/30 03:53:35;;;;;;;1.07;0.80;;;6.30;99.90;;;;;;5098685;28;20030;-77
2022/01/30 03:56:02;;;;;;;1.87;1.10;;;6.30;99.90;;;;;;5097862;28;20034;-77
2022/01/30 03:58:28;;;;;;;1.23;1.00;;;6.20;99.90;;;;;;5116451;28;20104;-77
2022/01/30 04:00:53;;;;;;;2.37;1.10;;;6.30;99.90;;;;;;5097954;28;20118;-78
2022/01/30 04:03:19;;;;;;;1.33;0.80;;;6.20;99.90;;;;;;5116394;28;20027;-75
2022/01/30 04:05:45;;;;;;;1.27;1.00;;;6.20;99.90;;;;;;5097667;28;20024;-75
2022/01/30 04:08:11;;;;;;;1.53;1.00;;;6.20;99.90;;;;;;5097139;28;20031;-75
2022/01/30 04:10:37;;;;;;;2.00;1.10;;;6.20;99.90;;;;;;5097948;28;20110;-76
2022/01/30 04:13:03;;;;;;;1.57;1.03;;;6.10;99.90;;;;;;5097351;28;20034;-77
2022/01/30 04:15:30;;;;;;;1.70;1.10;;;6.20;99.90;;;;;;5115528;28;20114;-76
2022/01/30 04:17:55;;;;;;;1.67;1.00;;;6.20;99.90;;;;;;5096050;28;20050;-78
2022/01/30 04:20:21;;;;;;;2.03;1.03;;;6.20;99.90;;;;;;5097631;28;20114;-75
2022/01/30 04:22:47;;;;;;;1.40;0.90;;;6.20;99.90;;;;;;5097278;28;20024;-76
2022/01/30 04:25:13;;;;;;;1.37;0.93;;;6.20;99.90;;;;;;5096498;28;20043;-77
2022/01/30 04:27:38;;;;;;;2.33;1.17;;;6.20;99.90;;;;;;5098027;28;20023;-76
2022/01/30 04:30:07;;;;;;;3.40;1.00;;;6.20;99.90;;;;;;5095998;28;20460;-76
2022/01/30 04:32:33;;;;;;;2.70;0.90;;;6.30;99.90;;;;;;5096615;28;20031;-76
2022/01/30 04:35:09;;;;;;;2.57;1.10;;;6.20;99.90;;;;;;5097260;28;20453;-77
2022/01/30 04:38:03;;;;;;;1.20;1.00;;;6.20;99.90;;;;;;5097356;28;20081;-76
2022/01/30 05:07:37;;;;;;;3.23;1.63;;;6.00;99.90;;;;;;5115051;28;20031;-76
2022/01/30 05:10:03;;;;;;;3.10;1.80;;;5.90;99.90;;;;;;5096284;28;20513;-76
2022/01/30 05:12:44;;;;;;;2.47;1.60;;;5.90;99.90;;;;;;5114851;28;20051;-76
2022/01/30 05:15:10;;;;;;;2.43;1.70;;;5.90;99.90;;;;;;5114351;28;20062;-76
2022/01/30 05:17:36;;;;;;;5.83;1.90;;;5.80;99.90;;;;;;5096655;28;20107;-76
2022/01/30 05:20:03;;;;;;;5.53;2.00;;;5.80;99.90;;;;;;5114292;28;20152;-76
2022/01/30 05:22:29;;;;;;;5.30;1.97;;;5.80;99.90;;;;;;5096253;28;20379;-75
2022/01/30 05:24:55;;;;;;;3.80;2.13;;;5.80;99.90;;;;;;5095259;28;20020;-77
2022/01/30 05:27:21;;;;;;;4.93;1.93;;;5.80;99.90;;;;;;5096045;28;20104;-76
2022/01/30 05:29:47;;;;;;;3.40;2.10;;;5.80;99.90;;;;;;5096417;28;20028;-76
2022/01/30 05:32:13;;;;;;;6.23;2.00;;;5.80;99.90;;;;;;5095718;28;20035;-76
2022/01/30 05:34:39;;;;;;;3.47;1.87;;;5.80;99.90;;;;;;5113894;28;20031;-75
2022/01/30 05:37:08;;;;;;;5.77;2.00;;;5.90;99.90;;;;;;5094714;28;20085;-76
2022/01/30 05:39:34;;;;;;;3.63;1.80;;;5.80;99.90;;;;;;5095900;28;20031;-76
2022/01/30 05:42:00;;;;;;;7.87;2.30;;;5.90;99.90;;;;;;5113807;28;20047;-78
2022/01/30 05:44:40;;;;;;;5.87;2.50;;;5.90;99.90;;;;;;5096011;28;20035;-76
2022/01/30 05:47:10;;;;;;;7.30;2.50;;;5.80;99.90;;;;;;5114115;28;20470;-76
2022/01/30 05:49:37;;;;;;;6.93;1.90;;;5.80;99.90;;;;;;5114207;28;20036;-75
2022/01/30 05:52:03;;;;;;;6.60;2.03;;;5.80;99.90;;;;;;5095514;28;20024;-76
2022/01/30 05:54:29;;;;;;;4.97;1.80;;;5.80;99.90;;;;;;5095877;28;20024;-76
2022/01/30 05:56:54;;;;;;;5.03;2.40;;;5.90;99.90;;;;;;5095903;28;20075;-76
2022/01/30 05:59:20;;;;;;;6.00;2.00;;;5.90;99.90;;;;;;5094810;28;20259;-76
2022/01/30 06:01:45;;;;;;;4.77;1.80;;;5.80;99.90;;;;;;5114079;28;20023;-76
2022/01/30 06:04:11;;;;;;;5.70;1.90;;;5.80;99.90;;;;;;5113565;28;20073;-76
2022/01/30 06:06:37;;;;;;;8.37;2.10;;;5.80;99.90;;;;;;5095605;28;20538;-76
2022/01/30 06:09:18;;;;;;;7.57;2.30;;;5.80;99.90;;;;;;5095178;28;20027;-76
2022/01/30 06:11:49;;;;;;;4.40;1.50;;;5.80;99.90;;;;;;5095626;28;20024;-76
2022/01/30 06:14:16;;;;;;;3.67;1.87;;;5.80;99.90;;;;;;5094967;28;20027;-75
2022/01/30 06:16:42;;;;;;;3.07;1.80;;;5.70;99.90;;;;;;5095441;28;20413;-75
2022/01/30 06:19:08;;;;;;;5.60;1.40;;;5.70;99.90;;;;;;5094827;28;20085;-76
2022/01/30 06:21:34;;;;;;;4.27;1.70;;;5.70;99.90;;;;;;5095038;28;20417;-76
2022/01/30 06:24:00;;;;;;;3.37;1.40;;;5.70;99.90;;;;;;5095054;28;20111;-75
2022/01/30 06:26:26;;;;;;;3.50;1.63;;;5.60;99.90;;;;;;5112683;28;20052;-75
2022/01/30 06:28:51;;;;;;;2.20;1.60;;;5.60;99.90;;;;;;5094530;28;20031;-75
2022/01/30 06:31:17;;;;;;;3.53;1.53;;;5.60;99.90;;;;;;5112545;28;20035;-75
2022/01/30 06:33:43;;;;;;;4.17;1.40;;;5.60;99.90;;;;;;5095422;28;20034;-75
2022/01/30 06:36:09;;;;;;;3.63;1.40;;;5.60;99.90;;;;;;5093890;28;20046;-76
2022/01/30 06:38:35;;;;;;;3.63;1.73;;;5.50;99.90;;;;;;5113081;28;20031;-76
2022/01/30 06:41:00;;;;;;;2.90;1.60;;;5.50;99.90;;;;;;5095208;28;20091;-75
2022/01/30 06:43:26;;;;;;;2.07;1.50;;;5.50;99.90;;;;;;5094076;28;20472;-77
2022/01/30 06:45:52;;;;;;;2.87;1.20;;;5.50;99.90;;;;;;5095436;28;20028;-77
2022/01/30 06:48:19;;;;;;;2.43;1.63;;;5.50;99.90;;;;;;5095360;28;20053;-77
2022/01/30 06:50:45;;;;;;;2.80;1.57;;;5.50;99.90;;;;;;5113871;28;20055;-77
2022/01/30 06:53:11;;;;;;;3.67;1.67;;;5.50;99.90;;;;;;5094219;28;20024;-77
2022/01/30 06:55:42;;;;;;;4.80;1.57;;;5.50;99.90;;;;;;5113552;28;20031;-77
2022/01/30 06:58:17;;;;;;;3.73;2.13;;;5.50;99.90;;;;;;5094639;28;20149;-77
2022/01/30 07:00:43;;;;;;;6.67;1.80;;;5.50;99.90;;;;;;5095517;28;20023;-77
2022/01/30 07:03:08;;;;;;;3.83;1.67;;;5.50;99.90;;;;;;5094265;28;20362;-77
2022/01/30 07:05:34;;;;;;;4.00;1.83;;;5.50;99.90;;;;;;5095179;28;20020;-77
2022/01/30 07:08:00;;;;;;;5.07;1.87;;;5.50;99.90;;;;;;5095098;28;20122;-77
2022/01/30 07:10:25;;;;;;;4.13;1.90;;;5.50;99.90;;;;;;5094534;28;20050;-77
2022/01/30 07:12:51;;;;;;;3.43;1.83;;;5.40;99.90;;;;;;5113101;28;20024;-76
2022/01/30 07:15:17;;;;;;;5.03;2.10;;;5.40;99.90;;;;;;5112306;28;20478;-75
2022/01/30 07:17:43;;;;;;;5.93;2.47;;;5.40;99.90;;;;;;5094681;28;20081;-76
2022/01/30 07:20:10;;;;;;;3.63;2.47;;;5.40;99.90;;;;;;5112353;28;20384;-77
2022/01/30 07:22:36;;;;;;;5.90;2.90;;;5.40;99.90;;;;;;5093744;28;20028;-76
2022/01/30 07:25:05;;;;;;;5.17;2.83;;;5.40;99.90;;;;;;5094526;28;20020;-76
2022/01/30 07:27:31;;;;;;;5.60;3.33;;;5.40;99.90;;;;;;5112527;28;20027;-75
2022/01/30 07:29:57;;;;;;;4.60;3.00;;;5.40;99.90;;;;;;5094591;28;20047;-75
2022/01/30 07:32:22;;;;;;;7.50;2.60;;;5.30;99.90;;;;;;5093763;28;20051;-75
2022/01/30 07:34:51;;;;;;;6.77;2.53;;;5.40;99.90;;;;;;5094520;28;20118;-75
2022/01/30 07:37:18;;;;;;;4.57;2.27;;;5.40;99.90;;;;;;5093998;28;20050;-75
2022/01/30 07:39:44;;;;;;;5.23;2.23;;;5.40;99.90;;;;;;5094464;28;20036;-75
2022/01/30 07:42:10;;;;;;;4.23;2.33;;;5.40;99.90;;;;;;5094068;28;20027;-75
2022/01/30 07:44:36;;;;;;;5.60;2.50;;;5.40;99.90;;;;;;5094390;28;20024;-75
2022/01/30 07:47:02;;;;;;;5.60;2.70;;;5.40;99.90;;;;;;5094227;28;20384;-76
2022/01/30 07:49:28;;;;;;;8.80;2.67;;;5.40;99.90;;;;;;5094087;28;20035;-76
2022/01/30 07:51:53;;;;;;;9.77;3.33;;;5.50;99.90;;;;;;5094186;28;20030;-76
2022/01/30 07:54:19;;;;;;;5.50;2.20;;;5.50;99.90;;;;;;5093804;28;20020;-76
2022/01/30 07:56:45;;;;;;;7.10;2.20;;;5.60;99.90;;;;;;5112851;28;20488;-76
2022/01/30 07:59:11;;;;;;;8.70;2.10;;;5.60;99.90;;;;;;5093747;28;20024;-77
2022/01/30 08:01:37;;;;;;;5.20;2.27;;;5.70;99.90;;;;;;5094834;28;20020;-76
2022/01/30 08:04:03;;;;;;;6.23;2.53;;;5.70;99.90;;;;;;5112712;28;20054;-76
2022/01/30 08:06:29;;;;;;;7.57;2.43;;;5.80;99.90;;;;;;5097530;28;20412;-76
2022/01/30 08:08:55;;;;;;;5.83;2.37;;;5.80;99.90;;;;;;5098131;28;20030;-76
2022/01/30 08:11:20;;;;;;;11.87;2.40;;;5.80;99.90;;;;;;5115375;28;20437;-76
2022/01/30 08:13:46;;;;;;;5.43;2.60;;;5.80;99.90;;;;;;5116071;28;20029;-77
2022/01/30 08:16:11;;;;;;;7.77;2.70;;;5.80;99.90;;;;;;5097227;28;20031;-76
2022/01/30 08:18:38;;;;;;;5.77;2.57;;;5.80;99.90;;;;;;5097855;28;20465;-76
2022/01/30 08:21:04;;;;;;;6.90;2.30;;;5.80;99.90;;;;;;5097725;28;20031;-76
2022/01/30 08:23:33;;;;;;;6.47;2.50;;;5.80;99.90;;;;;;5097178;28;20126;-77
2022/01/30 08:25:59;;;;;;;8.40;2.77;;;5.80;99.90;;;;;;5115742;28;20046;-77
2022/01/30 08:28:24;;;;;;;9.77;2.53;;;5.90;99.90;;;;;;5115274;28;20024;-76
2022/01/30 08:30:51;;;;;;;8.70;2.77;;;5.90;99.90;;;;;;5115744;28;20028;-75
2022/01/30 08:33:17;;;;;;;10.90;2.50;;;6.00;99.90;;;;;;5115360;28;20035;-76
2022/01/30 08:35:44;;;;;;;13.17;3.20;;;6.00;99.90;;;;;;5114175;28;20051;-76
2022/01/30 08:38:11;;;;;;;5.07;2.57;;;6.10;99.90;;;;;;5096473;28;20089;-78
2022/01/30 08:40:36;;;;;;;7.33;2.47;;;6.00;99.90;;;;;;5097763;28;20035;-76
2022/01/30 08:43:02;;;;;;;10.93;3.17;;;6.10;99.90;;;;;;5097094;28;20031;-76
2022/01/30 08:45:28;;;;;;;7.23;3.20;;;6.10;99.90;;;;;;5096576;28;20032;-76
2022/01/30 08:47:54;;;;;;;7.57;2.93;;;6.10;99.90;;;;;;5097401;28;20511;-76
2022/01/30 08:50:22;;;;;;;6.50;2.37;;;6.20;99.90;;;;;;5096519;28;20030;-76
2022/01/30 08:52:48;;;;;;;6.73;2.70;;;6.20;99.90;;;;;;5097025;28;20349;-77
2022/01/30 08:55:15;;;;;;;5.73;2.40;;;6.10;99.90;;;;;;5095882;28;20396;-76
2022/01/30 08:57:41;;;;;;;6.23;2.70;;;6.10;99.90;;;;;;5096955;28;20032;-76
2022/01/30 09:00:11;;;;;;;11.97;2.80;;;6.10;99.90;;;;;;5115168;28;20023;-76
2022/01/30 09:02:37;;;;;;;7.37;2.63;;;6.00;99.90;;;;;;5096738;28;20046;-77
2022/01/30 09:05:08;;;;;;;8.27;3.00;;;6.00;99.90;;;;;;5096941;28;20083;-76
2022/01/30 09:07:34;;;;;;;8.57;2.90;;;6.00;99.90;;;;;;5096218;28;20027;-77
2022/01/30 09:10:00;;;;;;;5.70;2.33;;;6.00;99.90;;;;;;5115258;28;20024;-75
2022/01/30 09:12:26;;;;;;;12.00;2.40;;;6.00;99.90;;;;;;5114328;28;20020;-76
2022/01/30 09:14:52;;;;;;;13.50;2.17;;;6.00;99.90;;;;;;5096324;28;20073;-76
2022/01/30 09:17:18;;;;;;;7.33;1.90;;;6.00;99.90;;;;;;5095434;28;20031;-77
2022/01/30 09:19:45;;;;;;;12.10;2.40;;;6.10;99.90;;;;;;5096630;28;20038;-76
2022/01/30 09:22:14;;;;;;;8.33;2.00;;;6.20;99.90;;;;;;5114528;28;20110;-77
2022/01/30 09:24:41;;;;;;;6.77;1.43;;;6.30;99.90;;;;;;5096948;28;20385;-77
2022/01/30 09:27:08;;;;;;;8.53;1.50;;;6.30;99.90;;;;;;5096089;28;20055;-76
2022/01/30 09:29:35;;;;;;;7.40;1.70;;;6.40;99.90;;;;;;5096167;28;20038;-77
2022/01/30 09:32:03;;;;;;;11.27;2.00;;;6.50;99.90;;;;;;5096430;28;20020;-77
2022/01/30 09:34:29;;;;;;;13.00;1.77;;;6.60;99.90;;;;;;5096039;28;20031;-76
2022/01/30 09:36:55;;;;;;;9.73;2.27;;;6.50;99.90;;;;;;5096362;28;20088;-77
2022/01/30 09:39:22;;;;;;;11.10;2.20;;;6.60;99.90;;;;;;5114039;28;20032;-77
2022/01/30 09:41:50;;;;;;;9.27;1.80;;;6.60;99.90;;;;;;5096232;28;20023;-77
2022/01/30 09:44:17;;;;;;;13.77;4.00;;;6.60;99.90;;;;;;5095674;28;20047;-77
2022/01/30 09:46:43;;;;;;;11.83;2.63;;;6.60;99.90;;;;;;5114061;28;20047;-77
2022/01/30 09:49:10;;;;;;;13.40;2.30;;;6.60;99.90;;;;;;5114046;28;20039;-77
2022/01/30 09:51:40;;;;;;;14.17;2.73;;;6.50;99.90;;;;;;5095306;28;20030;-77
2022/01/30 09:54:08;;;;;;;15.50;2.87;;;6.50;99.90;;;;;;5095825;28;20541;-77
2022/01/30 09:56:34;;;;;;;10.67;2.10;;;6.60;99.90;;;;;;5094474;28;20046;-77
2022/01/30 09:59:01;;;;;;;14.53;2.80;;;6.80;99.90;;;;;;5098207;27;20100;-76
2022/01/30 10:01:32;;;;;;;10.70;2.40;;;6.80;99.90;;;;;;5106188;27;20072;-77
2022/01/30 10:03:59;;;;;;;10.85;3.42;;;6.90;99.90;;;;;;5124922;27;20015;-77
2022/01/30 10:06:30;;;;;;;12.10;1.90;;;6.80;99.30;;;;;;5101024;27;20119;-76
2022/01/30 10:08:57;;;;;;;11.20;3.13;;;6.90;99.90;;;;;;5104808;27;20030;-76
2022/01/30 10:11:35;;;;;;;10.23;2.37;;;6.90;99.90;;;;;;5105866;27;20026;-77
2022/01/30 10:14:10;;;;;;;13.30;2.03;;;7.00;99.90;;;;;;5106340;27;20022;-76
2022/01/30 10:16:45;;;;;;;13.57;2.20;;;6.90;99.90;;;;;;5103415;27;20088;-75
2022/01/30 10:19:17;;;;;;;12.00;2.10;;;6.90;99.90;;;;;;5098897;27;20460;-75
2022/01/30 10:21:44;;;;;;;5.97;1.73;;;6.80;99.90;;;;;;5101471;27;20026;-76
2022/01/30 10:24:22;;;;;;;10.53;1.97;;;6.80;99.90;;;;;;5104903;27;20375;-75
2022/01/30 10:26:49;;;;;;;13.67;2.00;;;6.80;99.90;;;;;;5116297;27;20053;-75
2022/01/30 10:29:26;;;;;;;6.97;1.60;;;6.70;99.90;;;;;;5105134;27;20031;-76
2022/01/30 10:32:03;;;;;;;8.27;1.90;;;6.70;99.90;;;;;;5103706;27;20055;-75
2022/01/30 10:34:29;;;;;;;10.83;2.77;;;6.70;99.90;;;;;;5102263;28;20417;-75
2022/01/30 10:37:19;;;;;;;10.87;2.20;;;6.70;99.90;;;;;;5103510;28;20054;-75
2022/01/30 10:40:10;;;;;;;8.63;1.63;;;6.80;99.20;;;;;;5089703;27;20038;-76
2022/01/30 10:42:44;;;;;;;6.80;1.70;;;7.00;98.10;;;;;;5122653;27;20443;-75
2022/01/30 10:45:24;;;;;;;9.30;1.90;;;7.10;97.30;;;;;;5098813;28;20019;-77
2022/01/30 10:47:49;;;;;;;7.10;1.53;;;7.00;94.20;;;;;;5104525;27;20035;-75
2022/01/30 10:50:18;;;;;;;10.20;1.57;;;7.00;93.40;;;;;;5099043;28;20499;-78
2022/01/30 10:52:52;;;;;;;8.00;1.70;;;7.00;94.50;;;;;;5094585;28;20039;-75
2022/01/30 10:55:34;;;;;;;10.43;1.80;;;7.00;94.60;;;;;;5092041;28;20024;-76
2022/01/30 10:58:01;;;;;;;11.30;1.67;;;7.10;95.00;;;;;;5103110;28;20030;-75
2022/01/30 11:00:42;;;;;;;6.77;1.57;;;7.20;94.60;;;;;;5104395;28;20460;-76
2022/01/30 11:03:09;;;;;;;8.63;1.40;;;7.20;93.70;;;;;;5104500;28;20033;-77
2022/01/30 11:05:56;;;;;;;9.07;1.40;;;7.30;91.40;;;;;;5105324;28;20019;-78
2022/01/30 11:08:26;;;;;;;10.47;1.57;;;7.40;92.90;;;;;;5109777;28;20494;-78
2022/01/30 11:11:12;;;;;;;4.78;1.10;;;7.50;94.00;;;;;;5080702;28;20046;-76
2022/01/30 11:19:11;;;;;;;7.32;1.40;;;7.70;93.70;;;;;;5113988;28;20081;-76
2022/01/30 11:21:42;;;;;;;7.50;2.03;;;7.70;94.20;;;;;;5099526;28;20436;-76
2022/01/30 11:24:14;;;;;;;6.78;1.13;;;7.70;93.90;;;;;;5094540;28;20023;-77
2022/01/30 11:26:40;;;;;;;;;;;7.70;94.20;;;;;;5113194;28;20051;-78
2022/01/30 11:29:10;;;;;;;10.00;2.20;;;7.70;92.60;;;;;;5095085;28;19952;-76
2022/01/30 11:31:36;;;;;;;7.55;1.83;;;7.70;92.50;;;;;;5094296;28;20023;-76
2022/01/30 11:34:03;;;;;;;8.03;2.23;;;7.70;91.70;;;;;;5113039;28;20023;-77
2022/01/30 11:36:29;;;;;;;7.82;1.17;;;7.80;91.70;;;;;;5093882;28;20032;-76
2022/01/30 11:38:55;;;;;;;4.50;1.20;;;7.80;91.80;;;;;;5095883;28;20032;-77
2022/01/30 11:41:21;;;;;;;5.90;1.50;;;7.90;91.60;;;;;;5096822;28;20445;-77
2022/01/30 11:44:19;;;;;;;7.53;1.30;;;7.90;91.70;;;;;;5116294;28;20112;-76
2022/01/30 11:47:05;;;;;;;6.60;1.13;;;7.90;90.10;;;;;;5078002;28;20028;-76
2022/01/30 11:49:43;;;;;;;5.75;1.33;;;8.00;89.30;;;;;;5095017;28;20150;-76
2022/01/30 11:52:11;;;;;;;10.52;1.33;;;7.90;90.80;;;;;;5095983;28;20142;-76
2022/01/30 11:54:54;;;;;;;8.77;1.33;;;7.90;90.70;;;;;;5095582;28;20032;-75
2022/01/30 11:57:20;;;;;;;6.80;1.65;;;8.00;91.00;;;;;;5077289;28;20024;-79
2022/01/30 11:59:47;;;;;;;11.52;1.85;;;8.00;90.20;;;;;;5077543;28;20080;-75
2022/01/30 12:02:30;;;;;;;11.43;1.42;;;8.10;89.00;;;;;;5095874;28;20058;-76
2022/01/30 12:05:10;;;;;;;10.25;1.90;;;8.00;88.30;;;;;;5098392;28;20027;-77
2022/01/30 12:07:47;;;;;;;6.13;1.20;;;8.00;88.90;;;;;;5097697;28;20032;-77
2022/01/30 12:10:15;;;;;;;4.80;1.17;;;8.00;90.00;;;;;;5098142;28;20023;-77
2022/01/30 12:12:51;;;;;;;7.07;1.63;;;8.10;90.70;;;;;;5097688;28;20032;-76
2022/01/30 12:15:35;;;;;;;9.35;1.73;;;8.20;90.30;;;;;;5085451;28;20035;-76
2022/01/30 12:18:01;;;;;;;6.28;1.52;;;8.20;89.50;;;;;;5098700;28;20468;-78
2022/01/30 12:20:52;;;;;;;5.20;1.23;;;8.20;90.20;;;;;;5097504;28;20028;-76
2022/01/30 12:23:29;;;;;;;5.70;1.47;;;8.20;90.60;;;;;;5095954;28;20026;-76
2022/01/30 12:26:03;;;;;;;9.70;1.65;;;8.20;89.80;;;;;;5100385;28;20047;-78
2022/01/30 12:28:50;;;;;;;11.38;2.00;;;8.30;90.10;;;;;;5115464;28;20027;-80
2022/01/30 12:31:36;;;;;;;10.77;1.58;;;8.50;87.80;;;;;;5122416;27;20078;-76
2022/01/30 12:34:01;;;;;;;8.48;1.60;;;8.50;86.70;;;;;;5097807;28;20046;-80
2022/01/30 12:36:27;;;;;;;8.00;1.83;;;8.70;85.00;;;;;;5107458;28;20496;-81
2022/01/30 12:39:03;;;;;;;6.38;1.70;;;8.80;85.10;;;;;;5107794;27;20024;-80
2022/01/30 12:41:30;;;;;;;8.02;1.77;;;8.90;85.80;;;;;;5107577;28;20028;-80
2022/01/30 12:43:59;;;;;;;12.20;1.73;;;8.80;86.90;;;;;;5109206;28;20019;-80
2022/01/30 12:46:48;;;;;;;4.05;1.23;;;8.80;86.50;;;;;;5097258;28;20114;-82
2022/01/30 12:49:21;;;;;;;7.18;1.40;;;9.00;84.90;;;;;;5098293;28;20118;-80
2022/01/30 12:51:55;;;;;;;6.63;1.77;;;9.10;82.50;;;;;;5096866;28;20019;-80
2022/01/30 12:54:26;;;;;;;12.00;1.55;;;9.20;84.20;;;;;;5097662;28;20127;-80
2022/01/30 12:56:54;;;;;;;6.18;1.13;;;9.40;81.70;;;;;;5097953;28;20027;-80
2022/01/30 12:59:23;;;;;;;10.40;1.38;;;9.60;77.20;;;;;;5097259;28;20032;-80
2022/01/30 13:01:50;;;;;;;8.30;1.70;;;9.50;77.90;;;;;;5097342;28;20381;-77
2022/01/30 13:04:18;;;;;;;5.70;1.23;;;9.20;78.90;;;;;;5097302;28;20043;-78
2022/01/30 13:06:50;;;;;;;7.95;1.50;;;9.10;81.30;;;;;;5114512;28;20503;-76
2022/01/30 13:09:25;;;;;;;4.32;1.15;;;9.30;77.50;;;;;;5096813;28;20482;-76
2022/01/30 13:11:55;;;;;;;7.38;1.25;;;9.10;77.10;;;;;;5096953;28;20472;-76
2022/01/30 13:14:22;;;;;;;7.15;1.42;;;8.90;82.10;;;;;;5090093;28;20016;-80
2022/01/30 13:16:50;;;;;;;7.78;1.20;;;9.00;80.80;;;;;;5096526;28;20389;-78
2022/01/30 13:19:33;;;;;;;7.22;1.65;;;9.00;79.70;;;;;;5114818;28;20032;-78
2022/01/30 13:22:01;;;;;;;4.13;1.30;;;8.70;83.50;;;;;;5096949;28;20069;-78
2022/01/30 13:24:27;;;;;;;7.93;1.90;;;8.60;84.80;;;;;;5096263;28;20035;-77
2022/01/30 13:27:04;;;;;;;7.13;1.60;;;8.50;87.60;;;;;;5096463;28;20048;-76
2022/01/30 13:29:33;;;;;;;8.13;2.47;;;9.10;83.40;;;;;;5096064;28;20024;-76
2022/01/30 13:32:01;;;;;;;10.13;2.00;;;9.50;79.10;;;;;;5098468;27;20023;-76
2022/01/30 13:34:29;;;;;;;9.50;1.15;;;10.30;70.70;;;;;;5106481;27;20022;-77
2022/01/30 13:37:11;;;;;;;8.77;1.90;;;10.40;67.40;;;;;;5123842;27;20057;-76
2022/01/30 13:48:14;;;;;;;9.63;1.90;;;10.20;69.60;;;;;;5076063;28;20094;-77
2022/01/30 13:50:41;;;;;;;3.60;1.48;;;9.80;71.00;;;;;;5088391;27;20424;-77
2022/01/30 13:53:12;;;;;;;5.75;1.35;;;9.40;73.60;;;;;;5106662;28;20023;-75
2022/01/30 13:56:18;;;;;;;11.73;1.83;;;9.40;76.00;;;;;;5095336;28;20035;-76
2022/01/30 13:58:47;;;;;;;7.05;1.80;;;9.80;75.60;;;;;;5090442;28;20043;-77
2022/01/30 14:01:25;;;;;;;8.35;1.45;;;10.20;71.80;;;;;;5095797;28;20023;-76
2022/01/30 14:04:10;;;;;;;5.60;1.70;;;10.50;69.80;;;;;;5130828;27;20023;-77
2022/01/30 14:06:38;;;;;;;8.15;1.77;;;10.70;67.80;;;;;;5105557;28;20055;-77
2022/01/30 14:09:15;;;;;;;5.78;1.50;;;10.70;65.10;;;;;;5114134;28;20079;-77
2022/01/30 14:11:42;;;;;;;9.95;1.80;;;10.60;63.60;;;;;;5113429;28;20015;-77
2022/01/30 14:14:10;;;;;;;9.10;2.13;;;10.20;66.80;;;;;;5088022;28;20384;-78
2022/01/30 14:16:39;;;;;;;6.55;1.63;;;9.90;68.50;;;;;;5074685;28;20408;-76
2022/01/30 14:19:19;;;;;;;9.82;2.22;;;9.40;72.90;;;;;;5093794;28;20040;-78